BIKF

Keflavik International Airport

Reykjavík, Iceland

BIKF 201200Z 23017KT 5000 -DZRA BKN012 OVC030 06/05 Q0993

Observed Flight Rules
Oct-20 @ 12:00 UTC (19 minutes ago)
 
Marginal Visual Flight Rules
Wind Visibility Clouds Conditions
230° at 17 knots 5,005 meters
  • Broken at 1,200' AGL
  • Overcast at 3,000' AGL
  • Light Drizzle
  • Light Rain
Temperatures Readings
Current 6°C / 43°F
Dewpoint 5°C / 41°F
Humidity 93%
Altimeter 29.32" Hg
Pressure 993 hPa
Elevation 54
Observed Flight Rules
Oct-20 @ 12:00 UTC
(19 minutes ago)
 
MVFR
Wind Visibility
230° at 17 knots 5,005 meters
Clouds Conditions
  • Broken at 1,200' AGL
  • Overcast at 3,000' AGL
  • Light Drizzle
  • Light Rain
Temperature Dewpoint
6°C / 43°F 5°C / 41°F
Humidity Altimeter Pressure
93% 29.32" Hg 993 hPa